Ginys del Meteocat

Dades de l'estació automàtica Montsec d'Ares (1.572 m)

?
?
Resum diari 22:00 TU
Dades diàries de l'estació meteorològica
Temperatura mitjana 1.8 °C
Temperatura màxima 4.5 °C 11:35 TU
Temperatura mínima 0.1 °C 7:08 TU
Humitat relativa mitjana 78%
Precipitació acumulada 0.0 mm
Ratxa màxima del vent (10 m) 23.8 km/h - 170º 0:30 TU
Irradiació solar global 11.1 MJ/m2

El tram horari està expressat en Temps Universal (TU). Cal sumar una hora en horari d'hivern i dues en horari d'estiu per passar a l'hora oficial.

Montsec d'Ares (1.572 m)

Metadades estació meteorol´gica
Municipi Sant Esteve de la Sarga
Comarca Pallars Jussà
Altitud 1572 m
Data alta 17.06.2003
Estat actual Operativa
Dades de període
Període
TU
TM
°C
TX
°C
TN
°C
HRM
%
PPT
mm
VVM (10 m)
km/h
DVM (10 m)
graus
VVX (10 m)
km/h
PM
hPa
RS
W/m2
00:00 - 00:30 0.9 1.0 0.7 84 0.0 12.6 168 23.4 853.2 0
00:30 - 01:00 0.8 0.9 0.6 85 0.0 14.0 174 23.8 853.0 0
01:00 - 01:30 0.7 0.8 0.5 80 0.0 11.2 173 20.2 852.8 0
01:30 - 02:00 0.5 0.6 0.4 79 0.0 7.6 165 12.6 852.8 0
02:00 - 02:30 0.6 0.7 0.4 77 0.0 6.5 174 10.1 852.6 0
02:30 - 03:00 0.7 0.9 0.5 75 0.0 5.0 167 7.2 852.3 0
03:00 - 03:30 0.6 0.8 0.5 75 0.0 5.0 183 6.8 852.1 0
03:30 - 04:00 0.5 0.8 0.3 74 0.0 2.9 197 6.5 851.9 0
04:00 - 04:30 0.5 0.7 0.3 73 0.0 2.2 211 4.7 851.9 0
04:30 - 05:00 0.5 0.7 0.4 75 0.0 4.7 188 6.8 852.0 0
05:00 - 05:30 0.5 0.6 0.4 76 0.0 7.2 193 10.4 852.0 0
05:30 - 06:00 0.4 0.5 0.4 76 0.0 6.1 206 8.6 852.0 0
06:00 - 06:30 0.5 0.5 0.4 76 0.0 5.4 202 6.5 852.0 0
06:30 - 07:00 0.3 0.4 0.1 77 0.0 4.7 224 6.5 852.0 0
07:00 - 07:30 0.2 0.3 0.1 77 0.0 5.4 235 7.9 852.0 3
07:30 - 08:00 0.7 0.9 0.3 74 0.0 3.6 248 5.8 852.0 46
08:00 - 08:30 1.1 1.2 0.8 74 0.0 6.8 225 10.1 852.1 115
08:30 - 09:00 1.6 2.4 1.2 73 0.0 6.5 212 10.1 852.3 196
09:00 - 09:30 2.6 3.0 2.2 70 0.0 4.3 222 10.8 852.2 279
09:30 - 10:00 3.2 3.5 2.7 67 0.0 6.5 217 14.8 852.4 356
10:00 - 10:30 3.4 3.8 2.9 67 0.0 7.6 211 15.5 852.5 372
10:30 - 11:00 3.1 3.7 2.6 69 0.0 6.8 204 13.0 852.6 361
11:00 - 11:30 3.9 4.3 3.7 68 0.0 6.8 202 15.5 852.5 537
11:30 - 12:00 3.9 4.5 3.4 72 0.0 7.2 194 15.8 852.2 507
12:00 - 12:30 3.7 4.2 3.4 76 0.0 7.2 205 18.7 851.9 544
12:30 - 13:00 3.7 4.0 3.3 78 0.0 5.4 203 17.3 851.7 551
13:00 - 13:30 3.8 4.2 3.1 73 0.0 4.0 225 15.1 851.5 532
13:30 - 14:00 3.9 4.4 3.4 73 0.0 4.7 172 14.0 851.3 519
14:00 - 14:30 3.7 4.0 3.4 79 0.0 4.0 189 13.7 851.2 464
14:30 - 15:00 4.1 4.4 3.4 73 0.0 4.3 241 11.2 851.2 391
15:00 - 15:30 3.0 3.4 2.8 79 0.0 4.0 310 10.4 851.2 250
15:30 - 16:00 2.8 2.9 2.5 77 0.0 2.5 316 9.4 851.1 136
16:00 - 16:30 2.2 2.5 2.0 82 0.0 1.1 351 5.8 851.0 52
16:30 - 17:00 2.0 2.1 1.8 82 0.0 7.6 15 11.9 850.9 15
17:00 - 17:30 1.8 1.9 1.6 79 0.0 9.7 9 15.1 851.0 0
17:30 - 18:00 1.6 1.8 1.1 88 0.0 9.7 48 13.7 851.1 0
18:00 - 18:30 1.0 1.1 0.9 89 0.0 5.0 128 6.5 851.3 0
18:30 - 19:00 1.1 1.3 1.0 90 0.0 5.8 143 7.2 851.6 0
19:00 - 19:30 1.1 1.4 1.0 86 0.0 5.8 136 8.6 851.8 0
19:30 - 20:00 1.1 1.2 1.0 88 0.0 7.9 146 13.3 851.9 0
20:00 - 20:30 1.2 1.3 1.2 88 0.0 9.7 158 13.3 852.1 0
20:30 - 21:00 1.6 1.9 1.3 82 0.0 9.4 142 12.6 852.1 0
21:00 - 21:30 1.9 2.0 1.8 75 0.0 8.3 165 13.0 852.2 0
21:30 - 22:00 1.7 1.7 1.6 80 0.0 9.4 159 14.0 852.2 0
22:00 - 22:30 1.7 1.7 1.6 80 0.0 8.6 161 13.3 852.2 0

Les dades en taronja només han passat un control de qualitat automàtic. Resta pendent la seva validació definitiva.